sensor_id;sensor_type;location;lat;lon;timestamp;P1;durP1;ratioP1;P2;durP2;ratioP2
66093;SDS011;52876;49.394;10.892;2022-12-07T00:01:41;20.03;;;15.47;;
66093;SDS011;52876;49.394;10.892;2022-12-07T00:04:11;18.30;;;13.67;;
66093;SDS011;52876;49.394;10.892;2022-12-07T00:06:40;14.57;;;12.70;;
66093;SDS011;52876;49.394;10.892;2022-12-07T00:09:08;19.07;;;14.53;;
66093;SDS011;52876;49.394;10.892;2022-12-07T00:11:35;19.07;;;13.70;;
66093;SDS011;52876;49.394;10.892;2022-12-07T00:14:02;16.20;;;12.50;;
66093;SDS011;52876;49.394;10.892;2022-12-07T00:16:32;16.50;;;13.43;;
66093;SDS011;52876;49.394;10.892;2022-12-07T00:18:59;19.50;;;14.50;;
66093;SDS011;52876;49.394;10.892;2022-12-07T00:21:27;19.73;;;15.07;;
66093;SDS011;52876;49.394;10.892;2022-12-07T00:23:54;22.97;;;15.93;;
66093;SDS011;52876;49.394;10.892;2022-12-07T00:26:21;22.60;;;16.37;;
66093;SDS011;52876;49.394;10.892;2022-12-07T00:28:49;22.43;;;16.27;;
66093;SDS011;52876;49.394;10.892;2022-12-07T00:31:19;22.37;;;14.30;;
66093;SDS011;52876;49.394;10.892;2022-12-07T00:33:45;18.90;;;14.20;;
66093;SDS011;52876;49.394;10.892;2022-12-07T00:36:13;18.70;;;14.70;;
66093;SDS011;52876;49.394;10.892;2022-12-07T00:38:42;16.03;;;13.17;;
66093;SDS011;52876;49.394;10.892;2022-12-07T00:41:10;19.73;;;15.10;;
66093;SDS011;52876;49.394;10.892;2022-12-07T00:43:37;21.17;;;14.97;;
66093;SDS011;52876;49.394;10.892;2022-12-07T00:46:03;20.20;;;14.97;;
66093;SDS011;52876;49.394;10.892;2022-12-07T00:48:29;19.77;;;15.20;;
66093;SDS011;52876;49.394;10.892;2022-12-07T00:50:57;18.60;;;14.27;;
66093;SDS011;52876;49.394;10.892;2022-12-07T00:53:23;19.10;;;14.87;;
66093;SDS011;52876;49.394;10.892;2022-12-07T00:55:50;20.60;;;13.63;;
66093;SDS011;52876;49.394;10.892;2022-12-07T00:58:16;20.00;;;15.87;;
66093;SDS011;52876;49.394;10.892;2022-12-07T01:00:44;20.90;;;14.57;;
66093;SDS011;52876;49.394;10.892;2022-12-07T01:03:11;21.83;;;15.23;;
66093;SDS011;52876;49.394;10.892;2022-12-07T01:05:38;19.67;;;14.57;;
66093;SDS011;52876;49.394;10.892;2022-12-07T01:08:05;20.77;;;15.63;;
66093;SDS011;52876;49.394;10.892;2022-12-07T01:10:31;21.30;;;15.50;;
66093;SDS011;52876;49.394;10.892;2022-12-07T01:12:59;19.53;;;13.87;;
66093;SDS011;52876;49.394;10.892;2022-12-07T01:15:27;19.93;;;14.97;;
66093;SDS011;52876;49.394;10.892;2022-12-07T01:17:53;19.07;;;14.63;;
66093;SDS011;52876;49.394;10.892;2022-12-07T01:20:20;22.17;;;16.00;;
66093;SDS011;52876;49.394;10.892;2022-12-07T01:22:48;23.33;;;15.40;;
66093;SDS011;52876;49.394;10.892;2022-12-07T01:25:14;21.13;;;16.13;;
66093;SDS011;52876;49.394;10.892;2022-12-07T01:27:42;22.87;;;17.10;;
66093;SDS011;52876;49.394;10.892;2022-12-07T01:30:11;21.60;;;15.80;;
66093;SDS011;52876;49.394;10.892;2022-12-07T01:32:39;23.20;;;15.93;;
66093;SDS011;52876;49.394;10.892;2022-12-07T01:35:05;21.43;;;15.33;;
66093;SDS011;52876;49.394;10.892;2022-12-07T01:37:33;21.50;;;16.37;;
66093;SDS011;52876;49.394;10.892;2022-12-07T01:40:00;19.37;;;14.80;;
66093;SDS011;52876;49.394;10.892;2022-12-07T01:42:28;18.10;;;13.67;;
66093;SDS011;52876;49.394;10.892;2022-12-07T01:48:10;21.43;;;15.10;;
66093;SDS011;52876;49.394;10.892;2022-12-07T01:50:38;21.70;;;16.50;;
66093;SDS011;52876;49.394;10.892;2022-12-07T01:53:06;22.13;;;15.30;;
66093;SDS011;52876;49.394;10.892;2022-12-07T01:55:35;21.50;;;16.30;;
66093;SDS011;52876;49.394;10.892;2022-12-07T01:58:05;21.47;;;16.43;;
66093;SDS011;52876;49.394;10.892;2022-12-07T02:00:32;21.60;;;15.07;;
66093;SDS011;52876;49.394;10.892;2022-12-07T02:03:00;20.37;;;14.37;;
66093;SDS011;52876;49.394;10.892;2022-12-07T02:05:32;21.17;;;15.33;;
66093;SDS011;52876;49.394;10.892;2022-12-07T02:07:59;20.00;;;15.10;;
66093;SDS011;52876;49.394;10.892;2022-12-07T02:10:29;21.80;;;15.40;;
66093;SDS011;52876;49.394;10.892;2022-12-07T02:12:56;21.80;;;14.70;;
66093;SDS011;52876;49.394;10.892;2022-12-07T02:15:26;21.00;;;14.30;;
66093;SDS011;52876;49.394;10.892;2022-12-07T02:18:00;20.50;;;14.77;;
66093;SDS011;52876;49.394;10.892;2022-12-07T02:20:34;25.73;;;16.53;;
66093;SDS011;52876;49.394;10.892;2022-12-07T02:26:20;22.37;;;15.93;;
66093;SDS011;52876;49.394;10.892;2022-12-07T02:29:14;20.43;;;14.60;;
66093;SDS011;52876;49.394;10.892;2022-12-07T02:31:46;21.87;;;16.43;;
66093;SDS011;52876;49.394;10.892;2022-12-07T02:34:20;23.00;;;15.90;;
66093;SDS011;52876;49.394;10.892;2022-12-07T02:36:52;23.40;;;15.63;;
66093;SDS011;52876;49.394;10.892;2022-12-07T02:39:27;20.30;;;15.17;;
66093;SDS011;52876;49.394;10.892;2022-12-07T02:42:01;22.57;;;17.27;;
66093;SDS011;52876;49.394;10.892;2022-12-07T02:44:34;20.63;;;15.07;;
66093;SDS011;52876;49.394;10.892;2022-12-07T02:47:02;23.30;;;16.47;;
66093;SDS011;52876;49.394;10.892;2022-12-07T02:49:30;22.10;;;15.53;;
66093;SDS011;52876;49.394;10.892;2022-12-07T02:51:58;23.10;;;16.73;;
66093;SDS011;52876;49.394;10.892;2022-12-07T02:54:24;21.93;;;15.60;;
66093;SDS011;52876;49.394;10.892;2022-12-07T02:56:53;22.50;;;15.70;;
66093;SDS011;52876;49.394;10.892;2022-12-07T02:59:25;22.07;;;15.70;;
66093;SDS011;52876;49.394;10.892;2022-12-07T03:02:06;21.57;;;14.73;;
66093;SDS011;52876;49.394;10.892;2022-12-07T03:04:41;26.20;;;17.80;;
66093;SDS011;52876;49.394;10.892;2022-12-07T03:07:18;23.63;;;17.17;;
66093;SDS011;52876;49.394;10.892;2022-12-07T03:09:50;26.30;;;16.80;;
66093;SDS011;52876;49.394;10.892;2022-12-07T03:12:24;23.20;;;16.80;;
66093;SDS011;52876;49.394;10.892;2022-12-07T03:14:55;26.27;;;18.23;;
66093;SDS011;52876;49.394;10.892;2022-12-07T03:17:30;27.10;;;17.07;;
66093;SDS011;52876;49.394;10.892;2022-12-07T03:20:00;24.33;;;16.80;;
66093;SDS011;52876;49.394;10.892;2022-12-07T03:22:30;24.63;;;16.53;;
66093;SDS011;52876;49.394;10.892;2022-12-07T03:24:58;24.57;;;16.20;;
66093;SDS011;52876;49.394;10.892;2022-12-07T03:27:30;26.03;;;18.70;;
66093;SDS011;52876;49.394;10.892;2022-12-07T03:29:59;25.30;;;18.17;;
66093;SDS011;52876;49.394;10.892;2022-12-07T03:32:33;27.13;;;18.60;;
66093;SDS011;52876;49.394;10.892;2022-12-07T03:35:03;31.50;;;19.93;;
66093;SDS011;52876;49.394;10.892;2022-12-07T03:37:34;25.23;;;16.97;;
66093;SDS011;52876;49.394;10.892;2022-12-07T03:40:05;31.70;;;20.47;;
66093;SDS011;52876;49.394;10.892;2022-12-07T03:42:37;26.67;;;17.90;;
66093;SDS011;52876;49.394;10.892;2022-12-07T03:45:04;29.37;;;19.57;;
66093;SDS011;52876;49.394;10.892;2022-12-07T03:47:35;30.43;;;21.20;;
66093;SDS011;52876;49.394;10.892;2022-12-07T03:50:09;29.30;;;19.33;;
66093;SDS011;52876;49.394;10.892;2022-12-07T03:52:42;30.80;;;19.90;;
66093;SDS011;52876;49.394;10.892;2022-12-07T03:55:11;29.57;;;20.10;;
66093;SDS011;52876;49.394;10.892;2022-12-07T03:57:44;29.10;;;19.03;;
66093;SDS011;52876;49.394;10.892;2022-12-07T04:00:14;27.53;;;18.20;;
66093;SDS011;52876;49.394;10.892;2022-12-07T04:02:45;27.83;;;18.50;;
66093;SDS011;52876;49.394;10.892;2022-12-07T04:05:10;27.53;;;18.87;;
66093;SDS011;52876;49.394;10.892;2022-12-07T04:07:38;29.53;;;19.70;;
66093;SDS011;52876;49.394;10.892;2022-12-07T04:10:05;30.70;;;18.93;;
66093;SDS011;52876;49.394;10.892;2022-12-07T04:12:32;30.30;;;19.13;;
66093;SDS011;52876;49.394;10.892;2022-12-07T04:14:59;29.00;;;19.40;;
66093;SDS011;52876;49.394;10.892;2022-12-07T04:17:26;29.20;;;18.60;;
66093;SDS011;52876;49.394;10.892;2022-12-07T04:19:54;29.80;;;20.30;;
66093;SDS011;52876;49.394;10.892;2022-12-07T04:22:19;31.83;;;20.37;;
66093;SDS011;52876;49.394;10.892;2022-12-07T04:24:46;34.03;;;21.87;;
66093;SDS011;52876;49.394;10.892;2022-12-07T04:27:12;34.30;;;19.70;;
66093;SDS011;52876;49.394;10.892;2022-12-07T04:29:38;31.97;;;21.67;;
66093;SDS011;52876;49.394;10.892;2022-12-07T04:32:05;34.63;;;21.17;;
66093;SDS011;52876;49.394;10.892;2022-12-07T04:34:31;29.40;;;20.37;;
66093;SDS011;52876;49.394;10.892;2022-12-07T04:37:00;30.10;;;20.37;;
66093;SDS011;52876;49.394;10.892;2022-12-07T04:39:27;26.97;;;18.63;;
66093;SDS011;52876;49.394;10.892;2022-12-07T04:41:55;28.53;;;18.37;;
66093;SDS011;52876;49.394;10.892;2022-12-07T04:44:22;26.50;;;18.93;;
66093;SDS011;52876;49.394;10.892;2022-12-07T04:46:50;32.20;;;18.30;;
66093;SDS011;52876;49.394;10.892;2022-12-07T04:49:17;26.40;;;18.60;;
66093;SDS011;52876;49.394;10.892;2022-12-07T04:51:45;30.50;;;19.30;;
66093;SDS011;52876;49.394;10.892;2022-12-07T04:54:15;31.73;;;20.70;;
66093;SDS011;52876;49.394;10.892;2022-12-07T04:56:42;32.03;;;18.67;;
66093;SDS011;52876;49.394;10.892;2022-12-07T04:59:09;28.67;;;19.00;;
66093;SDS011;52876;49.394;10.892;2022-12-07T05:01:37;31.03;;;20.07;;
66093;SDS011;52876;49.394;10.892;2022-12-07T05:04:03;28.87;;;21.30;;
66093;SDS011;52876;49.394;10.892;2022-12-07T05:06:30;31.10;;;19.73;;
66093;SDS011;52876;49.394;10.892;2022-12-07T05:08:57;30.30;;;19.23;;
66093;SDS011;52876;49.394;10.892;2022-12-07T05:11:26;34.53;;;22.13;;
66093;SDS011;52876;49.394;10.892;2022-12-07T05:13:51;30.33;;;20.20;;
66093;SDS011;52876;49.394;10.892;2022-12-07T05:16:19;29.83;;;20.00;;
66093;SDS011;52876;49.394;10.892;2022-12-07T05:18:45;31.50;;;20.00;;
66093;SDS011;52876;49.394;10.892;2022-12-07T05:21:11;30.40;;;20.10;;
66093;SDS011;52876;49.394;10.892;2022-12-07T05:23:36;32.80;;;21.47;;
66093;SDS011;52876;49.394;10.892;2022-12-07T05:26:03;29.70;;;19.27;;
66093;SDS011;52876;49.394;10.892;2022-12-07T05:28:30;34.03;;;21.67;;
66093;SDS011;52876;49.394;10.892;2022-12-07T05:30:56;32.33;;;20.10;;
66093;SDS011;52876;49.394;10.892;2022-12-07T05:33:22;35.30;;;19.17;;
66093;SDS011;52876;49.394;10.892;2022-12-07T05:35:48;35.70;;;20.53;;
66093;SDS011;52876;49.394;10.892;2022-12-07T05:38:14;30.47;;;19.83;;
66093;SDS011;52876;49.394;10.892;2022-12-07T05:40:41;30.40;;;19.40;;
66093;SDS011;52876;49.394;10.892;2022-12-07T05:43:07;31.30;;;20.27;;
66093;SDS011;52876;49.394;10.892;2022-12-07T05:45:34;37.07;;;21.70;;
66093;SDS011;52876;49.394;10.892;2022-12-07T05:48:00;26.23;;;18.00;;
66093;SDS011;52876;49.394;10.892;2022-12-07T05:50:27;30.90;;;20.40;;
66093;SDS011;52876;49.394;10.892;2022-12-07T05:52:53;31.97;;;19.67;;
66093;SDS011;52876;49.394;10.892;2022-12-07T05:55:19;30.90;;;20.70;;
66093;SDS011;52876;49.394;10.892;2022-12-07T05:57:47;28.60;;;18.90;;
66093;SDS011;52876;49.394;10.892;2022-12-07T06:00:13;31.77;;;21.23;;
66093;SDS011;52876;49.394;10.892;2022-12-07T06:02:42;32.13;;;20.40;;
66093;SDS011;52876;49.394;10.892;2022-12-07T06:05:08;32.33;;;21.23;;
66093;SDS011;52876;49.394;10.892;2022-12-07T06:07:36;30.77;;;20.20;;
66093;SDS011;52876;49.394;10.892;2022-12-07T06:10:02;27.90;;;19.10;;
66093;SDS011;52876;49.394;10.892;2022-12-07T06:12:30;33.93;;;21.83;;
66093;SDS011;52876;49.394;10.892;2022-12-07T06:14:56;34.90;;;21.20;;
66093;SDS011;52876;49.394;10.892;2022-12-07T06:17:22;32.30;;;20.70;;
66093;SDS011;52876;49.394;10.892;2022-12-07T06:19:49;34.33;;;22.20;;
66093;SDS011;52876;49.394;10.892;2022-12-07T06:22:15;31.80;;;19.90;;
66093;SDS011;52876;49.394;10.892;2022-12-07T06:24:41;35.33;;;20.23;;
66093;SDS011;52876;49.394;10.892;2022-12-07T06:27:07;32.20;;;19.90;;
66093;SDS011;52876;49.394;10.892;2022-12-07T06:29:34;33.77;;;21.60;;
66093;SDS011;52876;49.394;10.892;2022-12-07T06:32:00;27.53;;;18.90;;
66093;SDS011;52876;49.394;10.892;2022-12-07T06:34:26;29.33;;;19.23;;
66093;SDS011;52876;49.394;10.892;2022-12-07T06:36:53;29.77;;;18.87;;
66093;SDS011;52876;49.394;10.892;2022-12-07T06:39:20;28.80;;;19.70;;
66093;SDS011;52876;49.394;10.892;2022-12-07T06:41:49;30.63;;;18.87;;
66093;SDS011;52876;49.394;10.892;2022-12-07T06:44:15;27.23;;;16.97;;
66093;SDS011;52876;49.394;10.892;2022-12-07T06:46:42;25.27;;;17.00;;
66093;SDS011;52876;49.394;10.892;2022-12-07T06:49:08;28.77;;;18.70;;
66093;SDS011;52876;49.394;10.892;2022-12-07T06:51:34;29.97;;;19.27;;
66093;SDS011;52876;49.394;10.892;2022-12-07T06:54:02;29.60;;;18.00;;
66093;SDS011;52876;49.394;10.892;2022-12-07T06:56:29;29.23;;;18.43;;
66093;SDS011;52876;49.394;10.892;2022-12-07T06:58:55;29.53;;;17.87;;
66093;SDS011;52876;49.394;10.892;2022-12-07T07:01:21;26.20;;;17.60;;
66093;SDS011;52876;49.394;10.892;2022-12-07T07:03:47;26.70;;;16.37;;
66093;SDS011;52876;49.394;10.892;2022-12-07T07:06:13;26.33;;;18.00;;
66093;SDS011;52876;49.394;10.892;2022-12-07T07:08:39;26.40;;;17.93;;
66093;SDS011;52876;49.394;10.892;2022-12-07T07:11:07;29.50;;;18.90;;
66093;SDS011;52876;49.394;10.892;2022-12-07T07:13:34;26.17;;;18.07;;
66093;SDS011;52876;49.394;10.892;2022-12-07T07:16:01;34.10;;;20.60;;
66093;SDS011;52876;49.394;10.892;2022-12-07T07:18:27;25.00;;;18.27;;
66093;SDS011;52876;49.394;10.892;2022-12-07T07:20:55;30.67;;;19.77;;
66093;SDS011;52876;49.394;10.892;2022-12-07T07:23:21;29.37;;;17.60;;
66093;SDS011;52876;49.394;10.892;2022-12-07T07:25:49;33.17;;;21.20;;
66093;SDS011;52876;49.394;10.892;2022-12-07T07:28:16;31.07;;;19.07;;
66093;SDS011;52876;49.394;10.892;2022-12-07T07:30:44;30.47;;;19.43;;
66093;SDS011;52876;49.394;10.892;2022-12-07T07:33:10;34.47;;;20.57;;
66093;SDS011;52876;49.394;10.892;2022-12-07T07:35:37;34.90;;;19.63;;
66093;SDS011;52876;49.394;10.892;2022-12-07T07:38:03;34.90;;;23.17;;
66093;SDS011;52876;49.394;10.892;2022-12-07T07:40:30;35.00;;;22.00;;
66093;SDS011;52876;49.394;10.892;2022-12-07T07:42:57;35.60;;;23.03;;
66093;SDS011;52876;49.394;10.892;2022-12-07T07:45:25;34.03;;;20.87;;
66093;SDS011;52876;49.394;10.892;2022-12-07T07:47:51;30.90;;;19.20;;
66093;SDS011;52876;49.394;10.892;2022-12-07T07:50:19;27.63;;;17.93;;
66093;SDS011;52876;49.394;10.892;2022-12-07T07:52:48;28.57;;;19.20;;
66093;SDS011;52876;49.394;10.892;2022-12-07T07:55:14;31.23;;;19.83;;
66093;SDS011;52876;49.394;10.892;2022-12-07T07:57:42;29.97;;;19.03;;
66093;SDS011;52876;49.394;10.892;2022-12-07T08:00:08;30.63;;;20.37;;
66093;SDS011;52876;49.394;10.892;2022-12-07T08:02:39;27.13;;;19.27;;
66093;SDS011;52876;49.394;10.892;2022-12-07T08:05:05;30.00;;;18.73;;
66093;SDS011;52876;49.394;10.892;2022-12-07T08:07:33;25.57;;;17.50;;
66093;SDS011;52876;49.394;10.892;2022-12-07T08:09:59;30.83;;;20.07;;
66093;SDS011;52876;49.394;10.892;2022-12-07T08:12:26;26.73;;;18.73;;
66093;SDS011;52876;49.394;10.892;2022-12-07T08:14:52;26.43;;;17.93;;
66093;SDS011;52876;49.394;10.892;2022-12-07T08:17:20;26.73;;;17.63;;
66093;SDS011;52876;49.394;10.892;2022-12-07T08:19:47;24.77;;;17.47;;
66093;SDS011;52876;49.394;10.892;2022-12-07T08:22:14;25.30;;;17.00;;
66093;SDS011;52876;49.394;10.892;2022-12-07T08:24:40;26.03;;;17.10;;
66093;SDS011;52876;49.394;10.892;2022-12-07T08:27:07;22.93;;;16.13;;
66093;SDS011;52876;49.394;10.892;2022-12-07T08:29:33;22.47;;;15.33;;
66093;SDS011;52876;49.394;10.892;2022-12-07T08:32:00;25.63;;;16.03;;
66093;SDS011;52876;49.394;10.892;2022-12-07T08:34:26;26.07;;;18.13;;
66093;SDS011;52876;49.394;10.892;2022-12-07T08:36:53;22.23;;;14.30;;
66093;SDS011;52876;49.394;10.892;2022-12-07T08:39:19;24.63;;;14.97;;
66093;SDS011;52876;49.394;10.892;2022-12-07T08:41:45;22.23;;;14.50;;
66093;SDS011;52876;49.394;10.892;2022-12-07T08:44:11;38.87;;;21.37;;
66093;SDS011;52876;49.394;10.892;2022-12-07T08:46:38;42.17;;;27.83;;
66093;SDS011;52876;49.394;10.892;2022-12-07T08:49:08;22.20;;;16.40;;
66093;SDS011;52876;49.394;10.892;2022-12-07T08:51:39;20.37;;;13.80;;
66093;SDS011;52876;49.394;10.892;2022-12-07T08:54:09;23.10;;;16.53;;
66093;SDS011;52876;49.394;10.892;2022-12-07T08:56:38;22.80;;;15.53;;
66093;SDS011;52876;49.394;10.892;2022-12-07T08:59:04;21.47;;;16.10;;
66093;SDS011;52876;49.394;10.892;2022-12-07T09:01:32;21.33;;;14.10;;
66093;SDS011;52876;49.394;10.892;2022-12-07T09:03:58;19.90;;;13.73;;
66093;SDS011;52876;49.394;10.892;2022-12-07T09:06:26;21.00;;;14.07;;
66093;SDS011;52876;49.394;10.892;2022-12-07T09:08:53;21.20;;;14.00;;
66093;SDS011;52876;49.394;10.892;2022-12-07T09:11:23;19.63;;;12.33;;
66093;SDS011;52876;49.394;10.892;2022-12-07T09:13:49;19.10;;;15.27;;
66093;SDS011;52876;49.394;10.892;2022-12-07T09:16:16;18.00;;;14.20;;
66093;SDS011;52876;49.394;10.892;2022-12-07T09:18:42;16.60;;;10.30;;
66093;SDS011;52876;49.394;10.892;2022-12-07T09:21:10;14.60;;;11.20;;
66093;SDS011;52876;49.394;10.892;2022-12-07T09:23:36;19.40;;;13.47;;
66093;SDS011;52876;49.394;10.892;2022-12-07T09:26:03;19.20;;;13.30;;
66093;SDS011;52876;49.394;10.892;2022-12-07T09:28:31;14.33;;;11.00;;
66093;SDS011;52876;49.394;10.892;2022-12-07T09:30:59;19.27;;;12.93;;
66093;SDS011;52876;49.394;10.892;2022-12-07T09:33:25;18.43;;;12.13;;
66093;SDS011;52876;49.394;10.892;2022-12-07T09:35:53;21.50;;;15.87;;
66093;SDS011;52876;49.394;10.892;2022-12-07T09:38:19;21.23;;;15.27;;
66093;SDS011;52876;49.394;10.892;2022-12-07T09:40:47;19.90;;;14.20;;
66093;SDS011;52876;49.394;10.892;2022-12-07T09:43:13;18.43;;;13.50;;
66093;SDS011;52876;49.394;10.892;2022-12-07T09:45:46;16.80;;;13.60;;
66093;SDS011;52876;49.394;10.892;2022-12-07T09:48:16;19.13;;;12.77;;
66093;SDS011;52876;49.394;10.892;2022-12-07T09:50:43;16.93;;;12.17;;
66093;SDS011;52876;49.394;10.892;2022-12-07T09:53:12;17.60;;;12.17;;
66093;SDS011;52876;49.394;10.892;2022-12-07T09:55:45;18.73;;;13.03;;
66093;SDS011;52876;49.394;10.892;2022-12-07T09:58:12;20.60;;;13.53;;
66093;SDS011;52876;49.394;10.892;2022-12-07T10:00:46;19.10;;;11.70;;
66093;SDS011;52876;49.394;10.892;2022-12-07T10:03:13;15.53;;;11.80;;
66093;SDS011;52876;49.394;10.892;2022-12-07T10:05:41;17.40;;;11.67;;
66093;SDS011;52876;49.394;10.892;2022-12-07T10:08:09;17.60;;;11.67;;
66093;SDS011;52876;49.394;10.892;2022-12-07T10:10:37;17.80;;;12.70;;
66093;SDS011;52876;49.394;10.892;2022-12-07T10:13:04;16.23;;;12.50;;
66093;SDS011;52876;49.394;10.892;2022-12-07T10:15:44;15.87;;;11.60;;
66093;SDS011;52876;49.394;10.892;2022-12-07T10:18:19;15.53;;;10.80;;
66093;SDS011;52876;49.394;10.892;2022-12-07T10:21:03;20.20;;;11.03;;
66093;SDS011;52876;49.394;10.892;2022-12-07T10:23:35;15.43;;;10.77;;
66093;SDS011;52876;49.394;10.892;2022-12-07T10:26:18;15.43;;;11.43;;
66093;SDS011;52876;49.394;10.892;2022-12-07T10:28:51;14.63;;;11.93;;
66093;SDS011;52876;49.394;10.892;2022-12-07T10:31:20;14.63;;;9.77;;
66093;SDS011;52876;49.394;10.892;2022-12-07T10:33:49;15.03;;;11.23;;
66093;SDS011;52876;49.394;10.892;2022-12-07T10:36:18;16.57;;;11.20;;
66093;SDS011;52876;49.394;10.892;2022-12-07T10:38:47;17.63;;;11.23;;
66093;SDS011;52876;49.394;10.892;2022-12-07T10:41:14;16.97;;;12.73;;
66093;SDS011;52876;49.394;10.892;2022-12-07T10:43:46;14.80;;;12.20;;
66093;SDS011;52876;49.394;10.892;2022-12-07T10:46:29;16.20;;;12.00;;
66093;SDS011;52876;49.394;10.892;2022-12-07T10:49:28;17.70;;;12.30;;
66093;SDS011;52876;49.394;10.892;2022-12-07T10:52:34;13.70;;;10.90;;
66093;SDS011;52876;49.394;10.892;2022-12-07T10:55:14;15.57;;;11.87;;
66093;SDS011;52876;49.394;10.892;2022-12-07T10:57:51;16.43;;;12.70;;
66093;SDS011;52876;49.394;10.892;2022-12-07T11:00:29;15.03;;;11.10;;
66093;SDS011;52876;49.394;10.892;2022-12-07T11:03:17;16.03;;;13.13;;
66093;SDS011;52876;49.394;10.892;2022-12-07T11:05:56;18.27;;;13.20;;
66093;SDS011;52876;49.394;10.892;2022-12-07T11:08:39;18.10;;;14.20;;
66093;SDS011;52876;49.394;10.892;2022-12-07T11:11:16;18.57;;;13.93;;
66093;SDS011;52876;49.394;10.892;2022-12-07T11:13:51;19.20;;;13.50;;
66093;SDS011;52876;49.394;10.892;2022-12-07T11:16:31;17.60;;;13.97;;
66093;SDS011;52876;49.394;10.892;2022-12-07T11:19:18;18.53;;;13.40;;
66093;SDS011;52876;49.394;10.892;2022-12-07T11:21:55;17.07;;;12.50;;
66093;SDS011;52876;49.394;10.892;2022-12-07T11:24:24;15.70;;;12.33;;
66093;SDS011;52876;49.394;10.892;2022-12-07T11:27:02;59.07;;;18.37;;
66093;SDS011;52876;49.394;10.892;2022-12-07T11:29:51;16.80;;;12.97;;
66093;SDS011;52876;49.394;10.892;2022-12-07T11:32:42;16.10;;;12.77;;
66093;SDS011;52876;49.394;10.892;2022-12-07T11:35:17;18.93;;;13.20;;
66093;SDS011;52876;49.394;10.892;2022-12-07T11:37:49;19.87;;;14.67;;
66093;SDS011;52876;49.394;10.892;2022-12-07T11:40:22;17.47;;;12.40;;
66093;SDS011;52876;49.394;10.892;2022-12-07T11:42:52;17.53;;;13.70;;
66093;SDS011;52876;49.394;10.892;2022-12-07T11:45:25;20.70;;;14.03;;
66093;SDS011;52876;49.394;10.892;2022-12-07T11:47:53;20.03;;;13.60;;
66093;SDS011;52876;49.394;10.892;2022-12-07T11:50:27;19.87;;;14.90;;
66093;SDS011;52876;49.394;10.892;2022-12-07T11:52:59;19.03;;;13.07;;
66093;SDS011;52876;49.394;10.892;2022-12-07T11:55:32;18.13;;;14.60;;
66093;SDS011;52876;49.394;10.892;2022-12-07T11:58:11;21.13;;;15.10;;
66093;SDS011;52876;49.394;10.892;2022-12-07T12:00:45;20.93;;;15.57;;
66093;SDS011;52876;49.394;10.892;2022-12-07T12:03:11;21.03;;;14.17;;
66093;SDS011;52876;49.394;10.892;2022-12-07T12:05:42;20.23;;;15.10;;
66093;SDS011;52876;49.394;10.892;2022-12-07T12:08:12;18.27;;;14.07;;
66093;SDS011;52876;49.394;10.892;2022-12-07T12:10:45;21.23;;;14.50;;
66093;SDS011;52876;49.394;10.892;2022-12-07T12:13:26;20.27;;;16.50;;
66093;SDS011;52876;49.394;10.892;2022-12-07T12:19:15;14.53;;;11.73;;
66093;SDS011;52876;49.394;10.892;2022-12-07T12:21:53;23.40;;;15.70;;
66093;SDS011;52876;49.394;10.892;2022-12-07T12:24:22;24.20;;;16.83;;
66093;SDS011;52876;49.394;10.892;2022-12-07T12:26:51;20.27;;;14.17;;
66093;SDS011;52876;49.394;10.892;2022-12-07T12:29:21;20.07;;;14.23;;
66093;SDS011;52876;49.394;10.892;2022-12-07T12:32:06;18.67;;;14.37;;
66093;SDS011;52876;49.394;10.892;2022-12-07T12:34:40;19.13;;;15.17;;
66093;SDS011;52876;49.394;10.892;2022-12-07T12:37:43;23.57;;;15.57;;
66093;SDS011;52876;49.394;10.892;2022-12-07T12:43:14;17.10;;;14.20;;
66093;SDS011;52876;49.394;10.892;2022-12-07T12:49:13;32.83;;;21.03;;
66093;SDS011;52876;49.394;10.892;2022-12-07T12:51:55;22.93;;;17.00;;
66093;SDS011;52876;49.394;10.892;2022-12-07T12:54:22;22.70;;;16.33;;
66093;SDS011;52876;49.394;10.892;2022-12-07T12:56:51;24.70;;;17.83;;
66093;SDS011;52876;49.394;10.892;2022-12-07T12:59:24;21.43;;;15.30;;
66093;SDS011;52876;49.394;10.892;2022-12-07T13:01:55;19.60;;;14.43;;
66093;SDS011;52876;49.394;10.892;2022-12-07T13:04:39;23.50;;;16.60;;
66093;SDS011;52876;49.394;10.892;2022-12-07T13:10:20;21.33;;;15.53;;
66093;SDS011;52876;49.394;10.892;2022-12-07T13:13:29;19.27;;;14.73;;
66093;SDS011;52876;49.394;10.892;2022-12-07T13:25:21;26.53;;;18.43;;
66093;SDS011;52876;49.394;10.892;2022-12-07T13:27:57;22.40;;;17.23;;
66093;SDS011;52876;49.394;10.892;2022-12-07T13:30:28;23.63;;;17.83;;
66093;SDS011;52876;49.394;10.892;2022-12-07T13:32:55;24.60;;;16.07;;
66093;SDS011;52876;49.394;10.892;2022-12-07T13:35:27;21.77;;;16.53;;
66093;SDS011;52876;49.394;10.892;2022-12-07T13:37:55;24.50;;;17.13;;
66093;SDS011;52876;49.394;10.892;2022-12-07T13:40:22;22.00;;;16.40;;
66093;SDS011;52876;49.394;10.892;2022-12-07T13:42:56;21.13;;;16.47;;
66093;SDS011;52876;49.394;10.892;2022-12-07T13:45:24;19.60;;;15.50;;
66093;SDS011;52876;49.394;10.892;2022-12-07T13:47:53;19.57;;;14.60;;
66093;SDS011;52876;49.394;10.892;2022-12-07T13:50:23;20.13;;;15.80;;
66093;SDS011;52876;49.394;10.892;2022-12-07T13:52:50;19.27;;;15.27;;
66093;SDS011;52876;49.394;10.892;2022-12-07T13:55:23;19.87;;;15.27;;
66093;SDS011;52876;49.394;10.892;2022-12-07T13:57:49;14.00;;;10.90;;
66093;SDS011;52876;49.394;10.892;2022-12-07T14:00:19;21.07;;;14.63;;
66093;SDS011;52876;49.394;10.892;2022-12-07T14:02:54;21.40;;;15.17;;
66093;SDS011;52876;49.394;10.892;2022-12-07T14:05:23;22.60;;;15.57;;
66093;SDS011;52876;49.394;10.892;2022-12-07T14:07:53;21.57;;;16.70;;
66093;SDS011;52876;49.394;10.892;2022-12-07T14:10:26;17.10;;;13.30;;
66093;SDS011;52876;49.394;10.892;2022-12-07T14:12:53;17.13;;;13.70;;
66093;SDS011;52876;49.394;10.892;2022-12-07T14:15:20;19.27;;;14.73;;
66093;SDS011;52876;49.394;10.892;2022-12-07T14:17:51;18.50;;;14.60;;
66093;SDS011;52876;49.394;10.892;2022-12-07T14:20:30;18.50;;;15.23;;
66093;SDS011;52876;49.394;10.892;2022-12-07T14:22:57;19.77;;;14.53;;
66093;SDS011;52876;49.394;10.892;2022-12-07T14:25:24;22.30;;;15.80;;
66093;SDS011;52876;49.394;10.892;2022-12-07T14:27:53;20.13;;;14.03;;
66093;SDS011;52876;49.394;10.892;2022-12-07T14:30:22;19.93;;;14.87;;
66093;SDS011;52876;49.394;10.892;2022-12-07T14:32:50;18.13;;;13.77;;
66093;SDS011;52876;49.394;10.892;2022-12-07T14:35:20;18.10;;;12.20;;
66093;SDS011;52876;49.394;10.892;2022-12-07T14:37:48;17.70;;;14.93;;
66093;SDS011;52876;49.394;10.892;2022-12-07T14:40:15;20.83;;;15.57;;
66093;SDS011;52876;49.394;10.892;2022-12-07T14:42:45;15.70;;;13.67;;
66093;SDS011;52876;49.394;10.892;2022-12-07T14:45:13;18.73;;;13.87;;
66093;SDS011;52876;49.394;10.892;2022-12-07T14:47:42;20.53;;;14.60;;
66093;SDS011;52876;49.394;10.892;2022-12-07T14:50:11;18.23;;;14.53;;
66093;SDS011;52876;49.394;10.892;2022-12-07T14:52:38;25.13;;;17.23;;